createdAt,value
2022-10-11T00:01:01.418Z,3.13
2022-10-11T00:03:50.857Z,3.38
2022-10-11T00:06:40.465Z,3.00
2022-10-11T00:09:30.329Z,3.05
2022-10-11T00:12:20.059Z,3.17
2022-10-11T00:15:10.389Z,3.10
2022-10-11T00:18:04.465Z,2.97
2022-10-11T00:21:04.101Z,4.22
2022-10-11T00:23:53.672Z,3.00
2022-10-11T00:26:46.516Z,3.00
2022-10-11T00:29:36.425Z,2.90
2022-10-11T00:32:26.066Z,3.40
2022-10-11T00:35:15.845Z,2.92
2022-10-11T00:38:05.452Z,2.70
2022-10-11T00:40:54.956Z,3.25
2022-10-11T00:43:44.994Z,3.22
2022-10-11T00:46:34.513Z,2.80
2022-10-11T00:49:52.991Z,3.22
2022-10-11T00:52:46.127Z,2.85
2022-10-11T00:55:41.758Z,3.10
2022-10-11T00:58:31.725Z,3.30
2022-10-11T01:01:21.397Z,2.95
2022-10-11T01:04:11.142Z,3.00
2022-10-11T01:07:01.289Z,2.90
2022-10-11T01:09:51.198Z,3.08
2022-10-11T01:13:10.498Z,3.15
2022-10-11T01:16:07.248Z,3.20
2022-10-11T01:19:17.030Z,3.20
2022-10-11T01:22:20.110Z,3.10
2022-10-11T01:25:40.598Z,3.25
2022-10-11T01:28:53.220Z,2.72
2022-10-11T01:34:41.605Z,3.25
2022-10-11T01:37:41.751Z,3.03
2022-10-11T01:40:40.923Z,3.10
2022-10-11T01:43:32.158Z,3.00
2022-10-11T01:46:22.688Z,3.13
2022-10-11T01:49:12.861Z,3.10
2022-10-11T01:52:06.748Z,3.70
2022-10-11T01:55:27.928Z,3.00
2022-10-11T01:58:20.492Z,3.00
2022-10-11T02:01:28.453Z,3.05
2022-10-11T02:04:27.310Z,3.58
2022-10-11T02:07:47.244Z,3.40
2022-10-11T02:10:41.001Z,3.15
2022-10-11T02:14:02.005Z,2.95
2022-10-11T02:16:56.542Z,3.28
2022-10-11T02:19:54.366Z,3.35
2022-10-11T02:22:47.425Z,3.00
2022-10-11T02:25:38.188Z,3.00
2022-10-11T02:28:32.966Z,3.05
2022-10-11T02:31:23.669Z,2.80
2022-10-11T02:34:15.555Z,3.20
2022-10-11T02:37:13.885Z,3.05
2022-10-11T02:40:12.867Z,3.30
2022-10-11T02:43:09.570Z,3.15
2022-10-11T02:46:03.313Z,3.22
2022-10-11T02:48:53.524Z,3.28
2022-10-11T02:51:43.064Z,3.10
2022-10-11T02:54:32.662Z,3.20
2022-10-11T02:57:22.478Z,2.97
2022-10-11T03:00:13.325Z,2.85
2022-10-11T03:03:02.758Z,2.80
2022-10-11T03:05:52.240Z,2.80
2022-10-11T03:08:41.641Z,2.90
2022-10-11T03:11:32.146Z,2.95
2022-10-11T03:14:21.538Z,2.92
2022-10-11T03:17:34.669Z,3.17
2022-10-11T03:20:20.406Z,2.70
2022-10-11T03:23:09.830Z,2.97
2022-10-11T03:25:59.471Z,3.55
2022-10-11T03:28:49.054Z,2.95
2022-10-11T03:31:38.610Z,2.80
2022-10-11T03:34:28.136Z,2.83
2022-10-11T03:37:17.707Z,3.20
2022-10-11T03:40:10.094Z,2.90
2022-10-11T03:45:49.714Z,2.85
2022-10-11T03:48:40.240Z,2.80
2022-10-11T03:51:29.747Z,2.80
2022-10-11T03:54:19.196Z,2.90
2022-10-11T03:57:08.701Z,3.08
2022-10-11T03:59:59.295Z,3.25
2022-10-11T04:02:49.086Z,2.70
2022-10-11T04:05:38.523Z,2.80
2022-10-11T04:08:28.466Z,2.95
2022-10-11T04:11:18.239Z,2.75
2022-10-11T04:14:07.719Z,3.05
2022-10-11T04:17:00.257Z,2.70
2022-10-11T04:19:50.178Z,3.10
2022-10-11T04:22:39.976Z,2.70
2022-10-11T04:25:30.981Z,2.40
2022-10-11T04:28:20.747Z,3.22
2022-10-11T04:31:10.321Z,2.90
2022-10-11T04:33:59.754Z,3.13
2022-10-11T04:36:50.141Z,3.03
2022-10-11T04:39:39.789Z,3.00
2022-10-11T04:42:29.181Z,3.05
2022-10-11T04:45:18.729Z,3.00
2022-10-11T04:48:09.088Z,3.08
2022-10-11T04:50:58.537Z,2.95
2022-10-11T04:53:49.021Z,3.25
2022-10-11T04:56:38.541Z,3.03
2022-10-11T04:59:28.025Z,3.17
2022-10-11T05:02:17.425Z,3.05
2022-10-11T05:05:07.323Z,3.20
2022-10-11T05:07:56.945Z,2.85
2022-10-11T05:10:58.223Z,3.00
2022-10-11T05:13:48.418Z,3.05
2022-10-11T05:16:38.170Z,3.00
2022-10-11T05:19:27.591Z,3.03
2022-10-11T05:22:17.027Z,3.20
2022-10-11T05:25:06.860Z,3.10
2022-10-11T05:27:56.637Z,2.92
2022-10-11T05:30:46.085Z,3.50
2022-10-11T05:33:35.562Z,3.20
2022-10-11T05:36:24.924Z,2.88
2022-10-11T05:39:14.478Z,3.08
2022-10-11T05:42:07.651Z,3.38
2022-10-11T05:44:59.301Z,3.40
2022-10-11T05:47:48.715Z,3.10
2022-10-11T05:50:39.025Z,3.08
2022-10-11T05:53:28.681Z,3.13
2022-10-11T05:56:26.890Z,3.22
2022-10-11T05:59:16.558Z,3.80
2022-10-11T06:02:06.112Z,3.33
2022-10-11T06:04:55.639Z,3.50
2022-10-11T06:07:46.154Z,3.22
2022-10-11T06:10:37.758Z,3.45
2022-10-11T06:13:27.360Z,3.70
2022-10-11T06:16:17.222Z,3.97
2022-10-11T06:19:06.863Z,3.63
2022-10-11T06:21:56.229Z,3.50
2022-10-11T06:24:45.862Z,3.40
2022-10-11T06:27:35.239Z,3.80
2022-10-11T06:30:25.301Z,3.45
2022-10-11T06:33:15.073Z,3.70
2022-10-11T06:36:11.145Z,3.38
2022-10-11T06:39:02.524Z,3.40
2022-10-11T06:41:52.166Z,3.67
2022-10-11T06:44:41.817Z,3.50
2022-10-11T06:47:31.175Z,3.60
2022-10-11T06:50:40.707Z,3.70
2022-10-11T06:53:30.337Z,3.58
2022-10-11T06:56:20.919Z,3.90
2022-10-11T06:59:10.863Z,3.40
2022-10-11T07:02:00.308Z,3.17
2022-10-11T07:04:49.725Z,3.08
2022-10-11T07:07:38.981Z,3.63
2022-10-11T07:10:28.718Z,3.53
2022-10-11T07:13:18.351Z,3.75
2022-10-11T07:16:10.807Z,3.75
2022-10-11T07:21:52.886Z,3.42
2022-10-11T07:24:43.138Z,3.40
2022-10-11T07:27:32.720Z,3.80
2022-10-11T07:30:22.479Z,3.42
2022-10-11T07:33:11.926Z,3.70
2022-10-11T07:36:01.683Z,3.95
2022-10-11T07:38:51.602Z,4.00
2022-10-11T07:41:45.648Z,4.30
2022-10-11T07:44:36.250Z,3.72
2022-10-11T07:47:25.753Z,3.58
2022-10-11T07:50:15.752Z,3.72
2022-10-11T07:53:06.008Z,3.40
2022-10-11T07:55:55.503Z,3.58
2022-10-11T07:58:45.851Z,3.30
2022-10-11T08:01:35.695Z,3.60
2022-10-11T08:04:25.179Z,3.60
2022-10-11T08:07:15.096Z,3.60
2022-10-11T08:10:06.846Z,3.55
2022-10-11T08:12:58.604Z,3.42
2022-10-11T08:15:52.774Z,4.00
2022-10-11T08:18:43.766Z,3.58
2022-10-11T08:21:34.189Z,3.58
2022-10-11T08:24:26.672Z,3.60
2022-10-11T08:27:17.027Z,3.60
2022-10-11T08:30:08.428Z,3.95
2022-10-11T08:32:58.624Z,4.00
2022-10-11T08:35:49.931Z,3.53
2022-10-11T08:38:41.389Z,3.67
2022-10-11T08:41:48.809Z,3.58
2022-10-11T08:45:10.655Z,3.83
2022-10-11T08:48:14.136Z,3.70
2022-10-11T08:51:11.747Z,3.60
2022-10-11T08:54:28.456Z,4.03
2022-10-11T08:57:22.474Z,3.63
2022-10-11T09:00:18.892Z,3.90
2022-10-11T09:03:36.001Z,3.75
2022-10-11T09:06:25.519Z,3.70
2022-10-11T09:09:30.325Z,3.78
2022-10-11T09:12:21.989Z,3.67
2022-10-11T09:15:33.847Z,3.90
2022-10-11T09:18:45.674Z,4.03
2022-10-11T09:21:59.210Z,3.60
2022-10-11T09:25:01.090Z,3.78
2022-10-11T09:28:17.095Z,4.17
2022-10-11T09:31:12.909Z,3.65
2022-10-11T09:34:12.724Z,3.90
2022-10-11T09:37:31.214Z,3.67
2022-10-11T09:40:34.890Z,4.05
2022-10-11T09:43:24.314Z,3.90
2022-10-11T09:46:24.919Z,3.83
2022-10-11T09:49:19.169Z,3.88
2022-10-11T09:52:16.916Z,3.70
2022-10-11T09:55:06.588Z,3.88
2022-10-11T09:57:56.487Z,3.78
2022-10-11T10:01:07.882Z,3.80
2022-10-11T10:04:15.819Z,4.10
2022-10-11T10:07:14.189Z,3.90
2022-10-11T10:10:30.359Z,3.70
2022-10-11T10:13:44.683Z,3.90
2022-10-11T10:16:35.949Z,3.80
2022-10-11T10:19:26.386Z,3.65
2022-10-11T10:22:24.955Z,3.90
2022-10-11T10:25:25.329Z,4.07
2022-10-11T10:28:26.593Z,4.20
2022-10-11T10:31:25.183Z,4.00
2022-10-11T10:34:17.900Z,3.67
2022-10-11T10:37:33.769Z,4.28
2022-10-11T10:40:45.475Z,4.10
2022-10-11T10:43:37.490Z,4.35
2022-10-11T10:46:48.280Z,3.95
2022-10-11T10:49:54.113Z,4.00
2022-10-11T10:53:06.859Z,3.78
2022-10-11T10:56:09.628Z,4.10
2022-10-11T10:59:08.625Z,4.20
2022-10-11T11:02:16.055Z,4.20
2022-10-11T11:05:26.104Z,4.07
2022-10-11T11:08:23.901Z,4.18
2022-10-11T11:11:19.110Z,4.20
2022-10-11T11:15:05.259Z,3.75
2022-10-11T11:18:21.786Z,4.05
2022-10-11T11:21:41.812Z,3.97
2022-10-11T11:24:37.330Z,4.15
2022-10-11T11:27:45.284Z,3.75
2022-10-11T11:31:10.747Z,4.63
2022-10-11T11:34:25.801Z,3.80
2022-10-11T11:37:35.773Z,3.85
2022-10-11T11:40:31.319Z,4.00
2022-10-11T11:43:35.429Z,3.75
2022-10-11T11:46:49.250Z,4.00
2022-10-11T11:49:47.822Z,3.47
2022-10-11T11:52:48.305Z,4.05
2022-10-11T11:55:50.339Z,3.55
2022-10-11T11:58:44.329Z,3.80
2022-10-11T12:02:16.884Z,3.60
2022-10-11T12:05:12.649Z,4.00
2022-10-11T12:08:25.257Z,3.88
2022-10-11T12:11:35.248Z,3.85
2022-10-11T12:14:25.907Z,4.40
2022-10-11T12:17:24.663Z,3.78
2022-10-11T12:20:34.091Z,4.20
2022-10-11T12:23:32.590Z,3.60
2022-10-11T12:26:31.530Z,3.60
2022-10-11T12:29:28.386Z,3.92
2022-10-11T12:32:30.328Z,4.40
2022-10-11T12:35:55.291Z,3.58
2022-10-11T12:38:45.061Z,4.00
2022-10-11T12:41:51.464Z,3.88
2022-10-11T12:44:40.863Z,4.10
2022-10-11T12:47:53.355Z,3.90
2022-10-11T12:50:52.542Z,3.45
2022-10-11T12:54:34.654Z,3.90
2022-10-11T12:57:41.422Z,4.75
2022-10-11T13:00:44.639Z,3.78
2022-10-11T13:03:42.413Z,3.50
2022-10-11T13:06:35.907Z,4.15
2022-10-11T13:09:36.930Z,4.13
2022-10-11T13:12:29.482Z,3.90
2022-10-11T13:15:22.553Z,4.15
2022-10-11T13:18:20.068Z,3.80
2022-10-11T13:21:40.339Z,3.75
2022-10-11T13:24:38.160Z,3.97
2022-10-11T13:27:29.280Z,3.53
2022-10-11T13:30:41.338Z,3.70
2022-10-11T13:33:34.552Z,3.60
2022-10-11T13:36:27.844Z,3.80
2022-10-11T13:39:43.757Z,4.10
2022-10-11T13:42:34.360Z,4.05
2022-10-11T13:45:26.361Z,4.20
2022-10-11T13:48:17.939Z,4.35
2022-10-11T13:51:28.072Z,3.97
2022-10-11T13:54:17.693Z,4.07
2022-10-11T13:57:07.097Z,3.80
2022-10-11T13:59:56.658Z,4.60
2022-10-11T14:02:58.041Z,4.13
2022-10-11T14:06:06.009Z,4.00
2022-10-11T14:08:59.623Z,4.50
2022-10-11T14:11:49.463Z,4.30
2022-10-11T14:14:44.431Z,4.05
2022-10-11T14:17:54.254Z,3.90
2022-10-11T14:20:44.219Z,4.05
2022-10-11T14:23:33.837Z,4.35
2022-10-11T14:26:25.109Z,4.10
2022-10-11T14:29:28.646Z,3.92
2022-10-11T14:32:21.829Z,4.13
2022-10-11T14:35:35.069Z,4.28
2022-10-11T14:38:24.486Z,4.43
2022-10-11T14:41:13.944Z,4.40
2022-10-11T14:44:03.280Z,4.40
2022-10-11T14:46:54.812Z,4.68
2022-10-11T14:49:44.762Z,3.80
2022-10-11T14:52:34.182Z,3.80
2022-10-11T14:55:24.195Z,4.15
2022-10-11T14:58:17.060Z,3.85
2022-10-11T15:01:06.550Z,4.00
2022-10-11T15:03:56.318Z,3.85
2022-10-11T15:06:46.067Z,4.03
2022-10-11T15:09:35.682Z,3.95
2022-10-11T15:12:25.036Z,4.32
2022-10-11T15:15:20.712Z,4.35
2022-10-11T15:18:14.437Z,4.13
2022-10-11T15:21:03.963Z,4.20
2022-10-11T15:23:54.697Z,4.30
2022-10-11T15:26:45.125Z,4.88
2022-10-11T15:29:34.564Z,4.20
2022-10-11T15:32:23.988Z,4.32
2022-10-11T15:35:14.026Z,4.47
2022-10-11T15:38:03.417Z,4.45
2022-10-11T15:40:53.594Z,3.95
2022-10-11T15:43:44.934Z,4.50
2022-10-11T15:46:34.227Z,4.30
2022-10-11T15:49:23.686Z,4.32
2022-10-11T15:52:13.283Z,4.40
2022-10-11T15:55:02.740Z,5.00
2022-10-11T15:57:52.064Z,4.40
2022-10-11T16:00:41.549Z,4.57
2022-10-11T16:03:34.150Z,3.97
2022-10-11T16:06:24.703Z,4.85
2022-10-11T16:09:14.257Z,4.32
2022-10-11T16:12:03.741Z,4.35
2022-10-11T16:14:53.117Z,4.10
2022-10-11T16:17:42.578Z,4.53
2022-10-11T16:20:33.806Z,4.10
2022-10-11T16:23:24.161Z,4.60
2022-10-11T16:26:17.372Z,4.32
2022-10-11T16:29:07.270Z,4.38
2022-10-11T16:31:56.818Z,3.85
2022-10-11T16:34:46.208Z,4.03
2022-10-11T16:37:36.223Z,4.40
2022-10-11T16:40:27.757Z,4.32
2022-10-11T16:43:17.556Z,4.38
2022-10-11T16:46:07.339Z,4.22
2022-10-11T16:48:57.846Z,4.18
2022-10-11T16:51:47.510Z,4.00
2022-10-11T16:54:36.875Z,4.18
2022-10-11T16:57:26.486Z,4.20
2022-10-11T17:00:18.651Z,4.00
2022-10-11T17:03:09.070Z,4.40
2022-10-11T17:05:58.751Z,3.60
2022-10-11T17:08:48.141Z,3.70
2022-10-11T17:11:37.711Z,3.97
2022-10-11T17:14:27.610Z,4.00
2022-10-11T17:17:18.443Z,4.47
2022-10-11T17:20:08.382Z,5.03
2022-10-11T17:22:57.784Z,4.03
2022-10-11T17:25:48.487Z,4.03
2022-10-11T17:28:39.127Z,4.03
2022-10-11T17:31:30.751Z,4.57
2022-10-11T17:34:20.264Z,4.75
2022-10-11T17:37:11.134Z,4.20
2022-10-11T17:40:00.574Z,4.28
2022-10-11T17:42:50.018Z,3.97
2022-10-11T17:45:39.471Z,4.05
2022-10-11T17:48:29.798Z,4.05
2022-10-11T17:51:20.503Z,4.00
2022-10-11T17:54:13.851Z,3.85
2022-10-11T17:57:03.931Z,3.92
2022-10-11T17:59:53.365Z,4.10
2022-10-11T18:02:42.973Z,3.85
2022-10-11T18:05:32.706Z,3.80
2022-10-11T18:08:22.088Z,3.92
2022-10-11T18:11:14.836Z,4.13
2022-10-11T18:14:05.512Z,4.32
2022-10-11T18:16:54.881Z,4.18
2022-10-11T18:19:44.576Z,4.00
2022-10-11T18:22:34.222Z,3.90
2022-10-11T18:25:23.581Z,3.80
2022-10-11T18:28:13.493Z,4.32
2022-10-11T18:31:03.350Z,3.90
2022-10-11T18:33:55.091Z,3.92
2022-10-11T18:36:48.628Z,4.13
2022-10-11T18:39:37.993Z,4.13
2022-10-11T18:42:27.464Z,4.07
2022-10-11T18:45:16.934Z,4.22
2022-10-11T18:48:06.589Z,3.95
2022-10-11T18:51:04.956Z,4.25
2022-10-11T18:53:55.418Z,3.95
2022-10-11T18:56:47.631Z,4.25
2022-10-11T18:59:37.496Z,3.75
2022-10-11T19:02:26.889Z,3.50
2022-10-11T19:05:16.470Z,4.18
2022-10-11T19:08:06.141Z,4.30
2022-10-11T19:10:55.682Z,3.75
2022-10-11T19:13:45.295Z,3.80
2022-10-11T19:16:36.243Z,3.78
2022-10-11T19:19:28.616Z,3.65
2022-10-11T19:22:18.115Z,3.85
2022-10-11T19:25:08.447Z,4.13
2022-10-11T19:27:57.817Z,4.13
2022-10-11T19:30:47.300Z,4.05
2022-10-11T19:33:37.439Z,4.15
2022-10-11T19:36:27.289Z,4.05
2022-10-11T19:39:18.441Z,4.20
2022-10-11T19:42:09.264Z,4.15
2022-10-11T19:44:58.585Z,3.90
2022-10-11T19:47:47.943Z,4.10
2022-10-11T19:50:37.895Z,4.10
2022-10-11T19:53:27.286Z,3.80
2022-10-11T19:56:18.804Z,3.53
2022-10-11T19:59:08.515Z,3.90
2022-10-11T20:01:58.154Z,4.10
2022-10-11T20:04:53.390Z,4.15
2022-10-11T20:07:42.858Z,3.97
2022-10-11T20:10:32.548Z,4.10
2022-10-11T20:13:22.529Z,3.67
2022-10-11T20:16:15.246Z,3.70
2022-10-11T20:21:54.702Z,3.80
2022-10-11T20:24:44.072Z,4.00
2022-10-11T20:27:34.013Z,4.13
2022-10-11T20:30:23.773Z,3.72
2022-10-11T20:33:13.275Z,3.80
2022-10-11T20:36:05.595Z,3.40
2022-10-11T20:38:55.000Z,3.90
2022-10-11T20:41:44.857Z,3.47
2022-10-11T20:44:34.344Z,3.80
2022-10-11T20:47:23.799Z,3.95
2022-10-11T20:50:13.114Z,4.00
2022-10-11T20:53:02.601Z,3.33
2022-10-11T20:55:52.720Z,4.00
2022-10-11T20:58:42.470Z,3.80
2022-10-11T21:01:35.666Z,3.65
2022-10-11T21:04:25.103Z,3.65
2022-10-11T21:07:14.499Z,3.67
2022-10-11T21:10:04.037Z,3.75
2022-10-11T21:12:53.428Z,3.30
2022-10-11T21:15:42.911Z,3.65
2022-10-11T21:18:32.210Z,3.83
2022-10-11T21:21:22.381Z,3.35
2022-10-11T21:24:11.837Z,3.67
2022-10-11T21:27:01.452Z,3.90
2022-10-11T21:29:51.057Z,3.42
2022-10-11T21:32:40.537Z,3.75
2022-10-11T21:35:32.063Z,3.50
2022-10-11T21:38:21.658Z,3.45
2022-10-11T21:41:37.069Z,3.30
2022-10-11T21:44:26.451Z,3.60
2022-10-11T21:47:15.878Z,3.60
2022-10-11T21:50:05.986Z,3.38
2022-10-11T21:52:55.649Z,3.47
2022-10-11T21:55:45.038Z,3.33
2022-10-11T21:58:34.452Z,3.53
2022-10-11T22:01:23.850Z,3.42
2022-10-11T22:04:13.391Z,4.00
2022-10-11T22:07:02.714Z,3.30
2022-10-11T22:09:52.146Z,3.65
2022-10-11T22:12:41.576Z,3.72
2022-10-11T22:15:33.926Z,3.45
2022-10-11T22:18:24.119Z,3.90
2022-10-11T22:21:16.010Z,3.70
2022-10-11T22:24:05.817Z,3.40
2022-10-11T22:26:55.171Z,3.40
2022-10-11T22:29:44.402Z,3.42
2022-10-11T22:32:33.896Z,3.65
2022-10-11T22:35:24.014Z,3.50
2022-10-11T22:38:13.294Z,3.50
2022-10-11T22:41:02.563Z,3.60
2022-10-11T22:43:52.079Z,3.53
2022-10-11T22:46:42.036Z,3.55
2022-10-11T22:49:31.255Z,3.40
2022-10-11T22:52:20.622Z,3.20
2022-10-11T22:55:10.224Z,3.63
2022-10-11T22:57:59.694Z,3.40
2022-10-11T23:00:49.267Z,3.40
2022-10-11T23:03:38.975Z,3.28
2022-10-11T23:06:28.398Z,3.72
2022-10-11T23:09:17.649Z,3.75
2022-10-11T23:12:07.496Z,3.45
2022-10-11T23:14:56.854Z,3.30
2022-10-11T23:17:46.163Z,3.33
2022-10-11T23:20:35.632Z,3.35
2022-10-11T23:23:25.358Z,3.33
2022-10-11T23:26:17.229Z,3.28
2022-10-11T23:29:06.518Z,3.53
2022-10-11T23:31:55.890Z,3.38
2022-10-11T23:34:45.121Z,3.22
2022-10-11T23:37:34.329Z,3.22
2022-10-11T23:40:23.539Z,3.47
2022-10-11T23:43:13.021Z,3.53
2022-10-11T23:46:02.658Z,3.40
2022-10-11T23:48:51.979Z,3.45
2022-10-11T23:51:41.752Z,3.35
2022-10-11T23:54:31.072Z,3.25
2022-10-11T23:57:20.354Z,3.38
